createdAt,value
2017-05-14T00:00:41.389Z,0
2017-05-14T00:01:50.280Z,0
2017-05-14T00:02:59.500Z,0
2017-05-14T00:04:09.043Z,0
2017-05-14T00:05:18.585Z,0
2017-05-14T00:06:27.576Z,0
2017-05-14T00:07:36.857Z,0
2017-05-14T00:08:46.401Z,0
2017-05-14T00:09:55.618Z,0
2017-05-14T00:11:04.562Z,0
2017-05-14T00:12:13.504Z,0
2017-05-14T00:13:22.450Z,0
2017-05-14T00:14:31.673Z,0
2017-05-14T00:15:40.568Z,0
2017-05-14T00:16:49.785Z,0
2017-05-14T00:17:58.834Z,0
2017-05-14T00:19:08.046Z,0
2017-05-14T00:20:17.263Z,0
2017-05-14T00:21:26.174Z,0
2017-05-14T00:22:35.069Z,0
2017-05-14T00:23:44.710Z,0
2017-05-14T00:24:53.930Z,0
2017-05-14T00:26:03.472Z,0
2017-05-14T00:27:12.366Z,0
2017-05-14T00:28:21.286Z,0
2017-05-14T00:29:30.507Z,0
2017-05-14T00:30:39.402Z,0
2017-05-14T00:31:48.294Z,0
2017-05-14T00:32:57.515Z,0
2017-05-14T00:34:06.736Z,0
2017-05-14T00:35:15.781Z,0
2017-05-14T00:36:24.677Z,0
2017-05-14T00:37:33.900Z,0
2017-05-14T00:38:43.774Z,0
2017-05-14T00:39:52.989Z,0
2017-05-14T00:41:02.181Z,0
2017-05-14T00:42:11.444Z,0
2017-05-14T00:43:20.662Z,0
2017-05-14T00:44:29.885Z,0
2017-05-14T00:45:38.785Z,0
2017-05-14T00:46:47.831Z,0
2017-05-14T00:47:56.720Z,0
2017-05-14T00:49:05.614Z,0
2017-05-14T00:50:14.508Z,0
2017-05-14T00:51:23.728Z,0
2017-05-14T00:52:32.944Z,0
2017-05-14T00:53:42.497Z,0
2017-05-14T00:54:52.070Z,0
2017-05-14T00:56:01.627Z,0
2017-05-14T00:57:10.848Z,0
2017-05-14T00:58:19.839Z,0
2017-05-14T00:59:28.729Z,0
2017-05-14T01:00:38.267Z,0
2017-05-14T01:01:47.161Z,0
2017-05-14T01:02:56.051Z,0
2017-05-14T01:04:05.963Z,0
2017-05-14T01:05:14.857Z,0
2017-05-14T01:06:23.755Z,0
2017-05-14T01:07:33.302Z,0
2017-05-14T01:08:42.846Z,0
2017-05-14T01:09:52.390Z,0
2017-05-14T01:11:01.938Z,0
2017-05-14T01:12:11.157Z,0
2017-05-14T01:13:20.372Z,0
2017-05-14T01:14:30.241Z,0
2017-05-14T01:15:39.284Z,0
2017-05-14T01:16:48.177Z,0
2017-05-14T01:17:57.066Z,0
2017-05-14T01:19:06.936Z,0
2017-05-14T01:20:15.830Z,0
2017-05-14T01:21:24.972Z,0
2017-05-14T01:22:34.187Z,0
2017-05-14T01:23:43.729Z,0
2017-05-14T01:24:52.946Z,0
2017-05-14T01:26:02.163Z,0
2017-05-14T01:27:11.485Z,0
2017-05-14T01:28:20.381Z,0
2017-05-14T01:29:29.272Z,0
2017-05-14T01:30:39.145Z,0
2017-05-14T01:31:48.360Z,0
2017-05-14T01:32:57.684Z,0
2017-05-14T01:34:07.226Z,0
2017-05-14T01:35:16.774Z,0
2017-05-14T01:36:25.668Z,0
2017-05-14T01:37:34.915Z,0
2017-05-14T01:38:44.605Z,0
2017-05-14T01:39:53.496Z,0
2017-05-14T01:41:02.719Z,0
2017-05-14T01:42:11.611Z,0
2017-05-14T01:43:20.833Z,0
2017-05-14T01:44:30.106Z,0
2017-05-14T01:45:39.651Z,0
2017-05-14T01:46:48.873Z,0
2017-05-14T01:47:57.762Z,0
2017-05-14T01:49:06.982Z,0
2017-05-14T01:50:16.035Z,0
2017-05-14T01:51:24.928Z,0
2017-05-14T01:52:34.195Z,0
2017-05-14T01:53:43.743Z,0
2017-05-14T01:54:53.292Z,0
2017-05-14T01:56:02.996Z,0
2017-05-14T01:57:12.218Z,0
2017-05-14T01:58:21.762Z,0
2017-05-14T01:59:30.988Z,0
2017-05-14T02:00:40.532Z,0
2017-05-14T02:01:50.072Z,0
2017-05-14T02:02:59.287Z,0
2017-05-14T02:04:08.188Z,0
2017-05-14T02:05:17.085Z,0
2017-05-14T02:06:26.306Z,0
2017-05-14T02:07:36.423Z,0
2017-05-14T02:08:45.638Z,0
2017-05-14T02:09:54.859Z,0
2017-05-14T02:11:04.403Z,0
2017-05-14T02:12:13.297Z,0
2017-05-14T02:13:22.668Z,0
2017-05-14T02:14:31.566Z,0
2017-05-14T02:15:40.506Z,0
2017-05-14T02:16:49.734Z,0
2017-05-14T02:17:59.276Z,0
2017-05-14T02:19:08.971Z,0
2017-05-14T02:20:18.185Z,0
2017-05-14T02:21:27.079Z,0
2017-05-14T02:22:36.295Z,0
2017-05-14T02:23:45.838Z,0
2017-05-14T02:24:55.207Z,0
2017-05-14T02:26:04.103Z,0
2017-05-14T02:27:13.317Z,0
2017-05-14T02:28:22.859Z,0
2017-05-14T02:29:32.407Z,0
2017-05-14T02:30:42.097Z,0
2017-05-14T02:31:50.988Z,0
2017-05-14T02:32:59.879Z,0
2017-05-14T02:34:08.767Z,0
2017-05-14T02:35:17.661Z,0
2017-05-14T02:36:26.599Z,0
2017-05-14T02:37:35.817Z,0
2017-05-14T02:38:45.039Z,0
2017-05-14T02:39:54.579Z,0
2017-05-14T02:41:03.800Z,0
2017-05-14T02:42:13.217Z,0
2017-05-14T02:43:22.105Z,0
2017-05-14T02:44:30.999Z,0
2017-05-14T02:45:40.548Z,0
2017-05-14T02:46:49.442Z,0
2017-05-14T02:47:58.587Z,0
2017-05-14T02:49:07.804Z,0
2017-05-14T02:50:17.022Z,0
2017-05-14T02:51:25.917Z,4
2017-05-14T02:52:35.135Z,4
2017-05-14T02:53:44.352Z,4
2017-05-14T02:54:54.544Z,0
2017-05-14T02:56:04.093Z,4
2017-05-14T02:57:13.307Z,4
2017-05-14T02:58:22.526Z,8
2017-05-14T02:59:32.382Z,4
2017-05-14T03:00:41.598Z,8
2017-05-14T03:01:50.872Z,8
2017-05-14T03:03:00.087Z,12
2017-05-14T03:04:09.628Z,12
2017-05-14T03:05:18.623Z,12
2017-05-14T03:06:28.170Z,12
2017-05-14T03:07:37.392Z,16
2017-05-14T03:08:46.296Z,20
2017-05-14T03:09:55.513Z,20
2017-05-14T03:11:04.458Z,28
2017-05-14T03:12:13.675Z,32
2017-05-14T03:13:22.577Z,36
2017-05-14T03:14:31.808Z,40
2017-05-14T03:15:40.698Z,48
2017-05-14T03:16:49.647Z,56
2017-05-14T03:17:59.849Z,64
2017-05-14T03:19:09.395Z,72
2017-05-14T03:20:18.937Z,80
2017-05-14T03:21:28.156Z,92
2017-05-14T03:22:37.148Z,100
2017-05-14T03:23:47.017Z,116
2017-05-14T03:24:55.913Z,128
2017-05-14T03:26:04.862Z,140
2017-05-14T03:27:14.075Z,156
2017-05-14T03:28:23.451Z,176
2017-05-14T03:29:32.348Z,192
2017-05-14T03:30:41.891Z,216
2017-05-14T03:31:50.781Z,232
2017-05-14T03:33:00.008Z,252
2017-05-14T03:34:09.201Z,280
2017-05-14T03:35:18.419Z,300
2017-05-14T03:36:27.635Z,324
2017-05-14T03:37:36.850Z,348
2017-05-14T03:38:46.065Z,376
2017-05-14T03:39:55.433Z,400
2017-05-14T03:41:04.649Z,424
2017-05-14T03:42:13.868Z,452
2017-05-14T03:43:23.413Z,480
2017-05-14T03:44:33.277Z,504
2017-05-14T03:45:42.551Z,524
2017-05-14T03:46:51.766Z,544
2017-05-14T03:48:01.307Z,568
2017-05-14T03:49:10.198Z,588
2017-05-14T03:50:19.419Z,608
2017-05-14T03:51:28.941Z,628
2017-05-14T03:52:38.157Z,644
2017-05-14T03:53:47.055Z,668
2017-05-14T03:54:56.598Z,700
2017-05-14T03:56:05.814Z,740
2017-05-14T03:57:15.547Z,784
2017-05-14T03:58:24.766Z,836
2017-05-14T03:59:34.314Z,896
2017-05-14T04:00:43.212Z,968
2017-05-14T04:01:52.101Z,1032
2017-05-14T04:03:02.171Z,1076
2017-05-14T04:04:11.393Z,1104
2017-05-14T04:05:20.293Z,1116
2017-05-14T04:06:29.506Z,1120
2017-05-14T04:07:39.106Z,1112
2017-05-14T04:08:48.819Z,1112
2017-05-14T04:09:58.688Z,1136
2017-05-14T04:11:07.618Z,1184
2017-05-14T04:12:16.841Z,1256
2017-05-14T04:13:26.438Z,1304
2017-05-14T04:14:35.803Z,1328
2017-05-14T04:15:44.710Z,1368
2017-05-14T04:16:53.602Z,1436
2017-05-14T04:18:02.822Z,1488
2017-05-14T04:19:12.047Z,1540
2017-05-14T04:20:21.085Z,1604
2017-05-14T04:21:29.978Z,1684
2017-05-14T04:22:39.192Z,1764
2017-05-14T04:23:48.414Z,1796
2017-05-14T04:24:57.632Z,1788
2017-05-14T04:26:07.326Z,1732
2017-05-14T04:27:16.223Z,1664
2017-05-14T04:28:25.770Z,1584
2017-05-14T04:29:34.986Z,1520
2017-05-14T04:30:43.918Z,1500
2017-05-14T04:31:53.566Z,1512
2017-05-14T04:33:02.455Z,1536
2017-05-14T04:34:11.683Z,1576
2017-05-14T04:35:20.900Z,1604
2017-05-14T04:36:29.789Z,1680
2017-05-14T04:37:38.836Z,1604
2017-05-14T04:38:48.381Z,1604
2017-05-14T04:39:57.606Z,1628
2017-05-14T04:41:06.503Z,1656
2017-05-14T04:42:16.051Z,1680
2017-05-14T04:43:24.946Z,1708
2017-05-14T04:44:33.836Z,1744
2017-05-14T04:45:42.727Z,1780
2017-05-14T04:46:51.945Z,1812
2017-05-14T04:48:01.486Z,1836
2017-05-14T04:49:10.578Z,1844
2017-05-14T04:50:19.843Z,1844
2017-05-14T04:51:28.741Z,1856
2017-05-14T04:52:37.957Z,1876
2017-05-14T04:53:47.177Z,1912
2017-05-14T04:54:56.766Z,1944
2017-05-14T04:56:05.984Z,1952
2017-05-14T04:57:14.874Z,1976
2017-05-14T04:58:24.090Z,1944
2017-05-14T04:59:33.312Z,1920
2017-05-14T05:00:42.704Z,1916
2017-05-14T05:01:51.918Z,1928
2017-05-14T05:03:01.468Z,1944
2017-05-14T05:04:10.683Z,1980
2017-05-14T05:05:19.572Z,2020
2017-05-14T05:06:28.566Z,2072
2017-05-14T05:07:37.790Z,2124
2017-05-14T05:08:47.019Z,2184
2017-05-14T05:09:56.886Z,2284
2017-05-14T05:11:05.787Z,2464
2017-05-14T05:12:14.681Z,2488
2017-05-14T05:13:24.546Z,2504
2017-05-14T05:14:33.761Z,2524
2017-05-14T05:15:42.990Z,2540
2017-05-14T05:16:51.879Z,2552
2017-05-14T05:18:01.246Z,2564
2017-05-14T05:19:10.790Z,2576
2017-05-14T05:20:20.331Z,2592
2017-05-14T05:21:29.550Z,2600
2017-05-14T05:22:38.778Z,2608
2017-05-14T05:23:48.301Z,2620
2017-05-14T05:24:57.845Z,2624
2017-05-14T05:26:07.064Z,2636
2017-05-14T05:27:16.287Z,2648
2017-05-14T05:28:25.182Z,2664
2017-05-14T05:29:34.427Z,2672
2017-05-14T05:30:43.322Z,2684
2017-05-14T05:31:52.549Z,2692
2017-05-14T05:33:01.444Z,2700
2017-05-14T05:34:10.339Z,2712
2017-05-14T05:35:19.715Z,2724
2017-05-14T05:36:28.935Z,2728
2017-05-14T05:37:37.823Z,2740
2017-05-14T05:38:46.717Z,2744
2017-05-14T05:39:55.615Z,2760
2017-05-14T05:41:04.883Z,2764
2017-05-14T05:42:13.776Z,2768
2017-05-14T05:43:22.669Z,2776
2017-05-14T05:44:32.538Z,2780
2017-05-14T05:45:41.754Z,2792
2017-05-14T05:46:50.650Z,2792
2017-05-14T05:48:00.197Z,2816
2017-05-14T05:49:09.090Z,2804
2017-05-14T05:50:17.979Z,2820
2017-05-14T05:51:27.194Z,2812
2017-05-14T05:52:36.236Z,2832
2017-05-14T05:53:45.785Z,2836
2017-05-14T05:54:54.680Z,2840
2017-05-14T05:56:03.576Z,2848
2017-05-14T05:57:12.851Z,2856
2017-05-14T05:58:21.792Z,2864
2017-05-14T05:59:31.007Z,2872
2017-05-14T06:00:39.908Z,2880
2017-05-14T06:01:49.123Z,2888
2017-05-14T06:02:58.063Z,2896
2017-05-14T06:04:07.701Z,2908
2017-05-14T06:05:16.922Z,2916
2017-05-14T06:06:25.816Z,2924
2017-05-14T06:07:34.715Z,2928
2017-05-14T06:08:43.607Z,2932
2017-05-14T06:09:52.927Z,2932
2017-05-14T06:11:02.483Z,2944
2017-05-14T06:12:11.707Z,2956
2017-05-14T06:13:20.964Z,2956
2017-05-14T06:14:29.856Z,2960
2017-05-14T06:15:39.121Z,2972
2017-05-14T06:16:48.335Z,2976
2017-05-14T06:17:57.227Z,2984
2017-05-14T06:19:06.447Z,2988
2017-05-14T06:20:15.662Z,3000
2017-05-14T06:21:24.812Z,3012
2017-05-14T06:22:34.359Z,3012
2017-05-14T06:23:43.622Z,3012
2017-05-14T06:24:52.851Z,3024
2017-05-14T06:26:01.739Z,3024
2017-05-14T06:27:10.733Z,3024
2017-05-14T06:28:19.949Z,3036
2017-05-14T06:29:29.166Z,3044
2017-05-14T06:30:38.057Z,3044
2017-05-14T06:31:46.954Z,3044
2017-05-14T06:32:56.323Z,3044
2017-05-14T06:34:05.544Z,3040
2017-05-14T06:35:14.447Z,3052
2017-05-14T06:36:23.335Z,3060
2017-05-14T06:37:32.230Z,3060
2017-05-14T06:38:41.172Z,3064
2017-05-14T06:39:50.066Z,3076
2017-05-14T06:40:58.959Z,3064
2017-05-14T06:42:08.174Z,3080
2017-05-14T06:43:17.071Z,3088
2017-05-14T06:44:26.264Z,3096
2017-05-14T06:45:35.158Z,3104
2017-05-14T06:46:44.053Z,3096
2017-05-14T06:47:52.948Z,3092
2017-05-14T06:49:01.835Z,3104
2017-05-14T06:50:10.781Z,3120
2017-05-14T06:51:19.999Z,3128
2017-05-14T06:52:28.894Z,3128
2017-05-14T06:53:38.109Z,3128
2017-05-14T06:54:47.327Z,3132
2017-05-14T06:55:56.644Z,3144
2017-05-14T06:57:05.542Z,3160
2017-05-14T06:58:14.486Z,3164
2017-05-14T06:59:23.707Z,3160
2017-05-14T07:00:32.922Z,3156
2017-05-14T07:01:41.963Z,3164
2017-05-14T07:02:50.857Z,3164
2017-05-14T07:04:00.071Z,3164
2017-05-14T07:05:08.967Z,3168
2017-05-14T07:06:18.183Z,3180
2017-05-14T07:07:27.134Z,3180
2017-05-14T07:08:36.358Z,3180
2017-05-14T07:09:45.578Z,3180
2017-05-14T07:10:54.476Z,3192
2017-05-14T07:12:03.694Z,3196
2017-05-14T07:13:13.265Z,3200
2017-05-14T07:14:22.158Z,3208
2017-05-14T07:15:31.698Z,3212
2017-05-14T07:16:40.913Z,3200
2017-05-14T07:17:49.810Z,3204
2017-05-14T07:18:58.705Z,3220
2017-05-14T07:20:07.600Z,3232
2017-05-14T07:21:16.493Z,3236
2017-05-14T07:22:25.385Z,3232
2017-05-14T07:23:34.287Z,3244
2017-05-14T07:24:43.555Z,3252
2017-05-14T07:25:52.445Z,3268
2017-05-14T07:27:01.339Z,3272
2017-05-14T07:28:10.557Z,3268
2017-05-14T07:29:19.444Z,3284
2017-05-14T07:30:28.715Z,3308
2017-05-14T07:31:37.610Z,3336
2017-05-14T07:32:46.502Z,3340
2017-05-14T07:33:55.400Z,3352
2017-05-14T07:35:04.624Z,3364
2017-05-14T07:36:13.995Z,3372
2017-05-14T07:37:22.895Z,3392
2017-05-14T07:38:31.793Z,3396
2017-05-14T07:39:41.012Z,3400
2017-05-14T07:40:49.906Z,3396
2017-05-14T07:41:58.853Z,3396
2017-05-14T07:43:07.744Z,3400
2017-05-14T07:44:16.636Z,3424
2017-05-14T07:45:25.856Z,3448
2017-05-14T07:46:35.073Z,3456
2017-05-14T07:47:44.441Z,3480
2017-05-14T07:48:53.340Z,3472
2017-05-14T07:50:02.238Z,3472
2017-05-14T07:51:11.464Z,3476
2017-05-14T07:52:20.409Z,3488
2017-05-14T07:53:29.789Z,3484
2017-05-14T07:54:38.689Z,3492
2017-05-14T07:55:47.902Z,3492
2017-05-14T07:56:56.796Z,3496
2017-05-14T07:58:05.693Z,3496
2017-05-14T07:59:14.635Z,3504
2017-05-14T08:00:23.527Z,3512
2017-05-14T08:01:33.393Z,3512
2017-05-14T08:02:42.285Z,3528
2017-05-14T08:03:51.186Z,3528
2017-05-14T08:05:00.253Z,3528
2017-05-14T08:06:09.525Z,3516
2017-05-14T08:07:18.428Z,3520
2017-05-14T08:08:27.648Z,3560
2017-05-14T08:09:36.541Z,3584
2017-05-14T08:10:45.584Z,3596
2017-05-14T08:11:54.486Z,3600
2017-05-14T08:13:04.032Z,3596
2017-05-14T08:14:12.934Z,3580
2017-05-14T08:15:21.832Z,3588
2017-05-14T08:16:31.550Z,3600
2017-05-14T08:17:40.449Z,3616
2017-05-14T08:18:49.375Z,3660
2017-05-14T08:19:58.597Z,3676
2017-05-14T08:21:07.816Z,3696
2017-05-14T08:22:16.761Z,3716
2017-05-14T08:23:25.658Z,3724
2017-05-14T08:24:34.558Z,3716
2017-05-14T08:25:43.785Z,3708
2017-05-14T08:26:53.331Z,3716
2017-05-14T08:28:02.976Z,3736
2017-05-14T08:29:11.888Z,3748
2017-05-14T08:30:20.786Z,3764
2017-05-14T08:31:30.006Z,3760
2017-05-14T08:32:38.900Z,3768
2017-05-14T08:33:47.901Z,3780
2017-05-14T08:34:57.126Z,3804
2017-05-14T08:36:06.022Z,3832
2017-05-14T08:37:15.248Z,3848
2017-05-14T08:38:24.143Z,3864
2017-05-14T08:39:33.663Z,3892
2017-05-14T08:40:42.607Z,3916
2017-05-14T08:41:51.828Z,3932
2017-05-14T08:43:00.721Z,3944
2017-05-14T08:44:09.624Z,3956
2017-05-14T08:45:18.666Z,3964
2017-05-14T08:46:27.902Z,4000
2017-05-14T08:47:36.795Z,4016
2017-05-14T08:48:45.693Z,4052
2017-05-14T08:49:54.910Z,4076
2017-05-14T08:51:04.458Z,4076
2017-05-14T08:52:13.730Z,4088
2017-05-14T08:53:22.628Z,4132
2017-05-14T08:54:31.520Z,4176
2017-05-14T08:55:40.421Z,4188
2017-05-14T08:56:49.465Z,4172
2017-05-14T08:57:58.683Z,4136
2017-05-14T08:59:07.587Z,4120
2017-05-14T09:00:16.482Z,4144
2017-05-14T09:01:25.384Z,4132
2017-05-14T09:02:34.623Z,4176
2017-05-14T09:03:43.515Z,4240
2017-05-14T09:04:52.743Z,4252
2017-05-14T09:06:01.638Z,4260
2017-05-14T09:07:10.531Z,4272
2017-05-14T09:08:19.579Z,4288
2017-05-14T09:09:28.842Z,4292
2017-05-14T09:10:38.064Z,4320
2017-05-14T09:11:46.961Z,4352
2017-05-14T09:12:55.908Z,4384
2017-05-14T09:14:05.532Z,4392
2017-05-14T09:15:14.750Z,4444
2017-05-14T09:16:23.971Z,4472
2017-05-14T09:17:32.865Z,4492
2017-05-14T09:18:41.760Z,4528
2017-05-14T09:19:50.807Z,4560
2017-05-14T09:20:59.701Z,4544
2017-05-14T09:22:09.248Z,4552
2017-05-14T09:23:18.142Z,4584
2017-05-14T09:24:27.362Z,4620
2017-05-14T09:25:36.254Z,4648
2017-05-14T09:26:45.174Z,4656
2017-05-14T09:27:54.393Z,4648
2017-05-14T09:29:03.288Z,4632
2017-05-14T09:30:12.183Z,4612
2017-05-14T09:31:21.128Z,4604
2017-05-14T09:32:30.070Z,4664
2017-05-14T09:33:38.967Z,4696
2017-05-14T09:34:47.862Z,4668
2017-05-14T09:35:57.740Z,4668
2017-05-14T09:37:07.113Z,4636
2017-05-14T09:38:16.012Z,4628
2017-05-14T09:39:24.904Z,4640
2017-05-14T09:40:33.805Z,4656
2017-05-14T09:41:42.703Z,4664
2017-05-14T09:42:51.756Z,4668
2017-05-14T09:44:00.986Z,4656
2017-05-14T09:45:09.889Z,4676
2017-05-14T09:46:18.785Z,4732
2017-05-14T09:47:27.681Z,4788
2017-05-14T09:48:36.731Z,4808
2017-05-14T09:49:45.627Z,4856
2017-05-14T09:50:54.520Z,4812
2017-05-14T09:52:03.739Z,4788
2017-05-14T09:53:12.640Z,4824
2017-05-14T09:54:21.731Z,4856
2017-05-14T09:55:30.629Z,4912
2017-05-14T09:56:39.524Z,4968
2017-05-14T09:57:48.525Z,4980
2017-05-14T09:58:57.741Z,4952
2017-05-14T10:00:07.281Z,4940
2017-05-14T10:01:16.514Z,4980
2017-05-14T10:02:25.417Z,5008
2017-05-14T10:03:34.322Z,5072
2017-05-14T10:04:43.233Z,5184
2017-05-14T10:05:52.132Z,5448
2017-05-14T10:07:01.681Z,6316
2017-05-14T10:08:10.576Z,5564
2017-05-14T10:09:19.476Z,5020
2017-05-14T10:10:28.375Z,5248
2017-05-14T10:11:37.278Z,5780
2017-05-14T10:12:46.174Z,5816
2017-05-14T10:13:55.074Z,5912
2017-05-14T10:15:04.305Z,5888
2017-05-14T10:16:13.204Z,5900
2017-05-14T10:17:22.102Z,6016
2017-05-14T10:18:31.008Z,5972
2017-05-14T10:19:40.227Z,6180
2017-05-14T10:20:49.445Z,5976
2017-05-14T10:21:58.340Z,5580
2017-05-14T10:23:07.562Z,5356
2017-05-14T10:24:16.455Z,6020
2017-05-14T10:25:25.676Z,6072
2017-05-14T10:26:34.573Z,6032
2017-05-14T10:27:43.796Z,6204
2017-05-14T10:28:52.691Z,6632
2017-05-14T10:30:01.595Z,7288
2017-05-14T10:31:10.870Z,7880
2017-05-14T10:32:19.767Z,7296
2017-05-14T10:33:28.992Z,7400
2017-05-14T10:34:38.216Z,7492
2017-05-14T10:35:47.123Z,7952
2017-05-14T10:36:56.589Z,8816
2017-05-14T10:38:05.488Z,8852
2017-05-14T10:39:14.383Z,8940
2017-05-14T10:40:23.280Z,9504
2017-05-14T10:41:32.828Z,9392
2017-05-14T10:42:42.258Z,9208
2017-05-14T10:43:51.480Z,8648
2017-05-14T10:45:00.377Z,8336
2017-05-14T10:46:09.603Z,8064
2017-05-14T10:47:18.502Z,8752
2017-05-14T10:48:27.700Z,9152
2017-05-14T10:49:36.613Z,9640
2017-05-14T10:50:45.511Z,10280
2017-05-14T10:51:54.740Z,10264
2017-05-14T10:53:03.647Z,10176
2017-05-14T10:54:13.356Z,10584
2017-05-14T10:55:22.257Z,10744
2017-05-14T10:56:31.480Z,11568
2017-05-14T10:57:40.701Z,12872
2017-05-14T10:58:49.925Z,14104
2017-05-14T10:59:58.988Z,16768
2017-05-14T11:01:07.890Z,18720
2017-05-14T11:02:16.789Z,19584
2017-05-14T11:03:25.690Z,16544
2017-05-14T11:04:34.588Z,14780
2017-05-14T11:05:43.685Z,13360
2017-05-14T11:06:52.586Z,12136
2017-05-14T11:08:01.490Z,12528
2017-05-14T11:09:10.390Z,12152
2017-05-14T11:10:19.290Z,12180
2017-05-14T11:11:28.290Z,12588
2017-05-14T11:12:37.236Z,14748
2017-05-14T11:13:46.784Z,15216
2017-05-14T11:14:56.007Z,13300
2017-05-14T11:16:04.906Z,12984
2017-05-14T11:17:14.179Z,12336
2017-05-14T11:18:23.402Z,13216
2017-05-14T11:19:32.304Z,13088
2017-05-14T11:20:41.255Z,12804
2017-05-14T11:21:50.162Z,12016
2017-05-14T11:22:59.595Z,10564
2017-05-14T11:24:08.831Z,10528
2017-05-14T11:25:17.726Z,12900
2017-05-14T11:26:26.949Z,12544
2017-05-14T11:27:36.179Z,12752
2017-05-14T11:28:45.602Z,15668
2017-05-14T11:29:54.499Z,15672
2017-05-14T11:31:03.725Z,16800
2017-05-14T11:32:12.632Z,17440
2017-05-14T11:33:21.531Z,17440
2017-05-14T11:34:30.686Z,17440
2017-05-14T11:35:39.584Z,17728
2017-05-14T11:36:48.487Z,15428
2017-05-14T11:37:57.777Z,15524
2017-05-14T11:39:07.328Z,15188
2017-05-14T11:40:16.859Z,13752
2017-05-14T11:41:26.095Z,14808
2017-05-14T11:42:35.380Z,13940
2017-05-14T11:43:44.924Z,14576
2017-05-14T11:44:53.830Z,16120
2017-05-14T11:46:02.834Z,16656
2017-05-14T11:47:11.735Z,15924
2017-05-14T11:48:20.641Z,15948
2017-05-14T11:49:30.197Z,14608
2017-05-14T11:50:39.748Z,18112
2017-05-14T11:51:48.804Z,12564
2017-05-14T11:52:57.700Z,65312
2017-05-14T11:54:06.600Z,76864
2017-05-14T11:55:15.501Z,84256
2017-05-14T11:56:24.401Z,77216
2017-05-14T11:57:33.351Z,80256
2017-05-14T11:58:42.256Z,78240
2017-05-14T11:59:51.158Z,81056
2017-05-14T12:01:00.066Z,26688
2017-05-14T12:02:08.974Z,70176
2017-05-14T12:03:18.279Z,78880
2017-05-14T12:04:27.837Z,82816
2017-05-14T12:05:36.744Z,80992
2017-05-14T12:06:46.306Z,31744
2017-05-14T12:07:55.209Z,33184
2017-05-14T12:09:04.268Z,12668
2017-05-14T12:10:13.173Z,13196
2017-05-14T12:11:22.086Z,30240
2017-05-14T12:12:31.316Z,20448
2017-05-14T12:13:40.219Z,33792
2017-05-14T12:14:49.495Z,27648
2017-05-14T12:15:58.407Z,88128
2017-05-14T12:17:07.312Z,24416
2017-05-14T12:18:16.221Z,18880
2017-05-14T12:19:25.773Z,20288
2017-05-14T12:20:34.977Z,20320
2017-05-14T12:21:43.884Z,22336
2017-05-14T12:22:52.788Z,38848
2017-05-14T12:24:02.341Z,59296
2017-05-14T12:25:11.567Z,66624
2017-05-14T12:26:20.632Z,104320
2017-05-14T12:27:29.545Z,52416
2017-05-14T12:28:38.774Z,21664
2017-05-14T12:29:48.090Z,25088
2017-05-14T12:30:57.018Z,21984
2017-05-14T12:32:06.978Z,24224
2017-05-14T12:33:16.533Z,23104
2017-05-14T12:34:25.433Z,21408
2017-05-14T12:35:34.997Z,22144
2017-05-14T12:36:43.917Z,36224
2017-05-14T12:37:53.358Z,22688
2017-05-14T12:39:02.288Z,21632
2017-05-14T12:40:11.191Z,104960
2017-05-14T12:41:20.428Z,22368
2017-05-14T12:42:29.663Z,97408
2017-05-14T12:43:38.808Z,88928
2017-05-14T12:44:47.721Z,77568
2017-05-14T12:45:57.042Z,43936
2017-05-14T12:47:06.039Z,23104
2017-05-14T12:48:15.013Z,34336
2017-05-14T12:49:24.248Z,28064
2017-05-14T12:50:33.155Z,60800
2017-05-14T12:51:42.062Z,23520
2017-05-14T12:52:51.293Z,32800
2017-05-14T12:54:00.206Z,25440
2017-05-14T12:55:09.185Z,27840
2017-05-14T12:56:18.743Z,23840
2017-05-14T12:57:27.646Z,23328
2017-05-14T12:58:36.551Z,30496
2017-05-14T12:59:45.503Z,38624
2017-05-14T13:00:54.558Z,33600
2017-05-14T13:02:04.120Z,27744
2017-05-14T13:03:13.029Z,81632
2017-05-14T13:04:21.942Z,43040
2017-05-14T13:05:31.497Z,32800
2017-05-14T13:06:40.555Z,31264
2017-05-14T13:07:49.461Z,27264
2017-05-14T13:08:58.370Z,31008
2017-05-14T13:10:07.601Z,38336
2017-05-14T13:11:16.833Z,38208
2017-05-14T13:12:25.788Z,44000
2017-05-14T13:13:34.696Z,99456
2017-05-14T13:14:43.605Z,90912
2017-05-14T13:15:52.835Z,86944
2017-05-14T13:17:02.074Z,93568
2017-05-14T13:18:11.785Z,91456
2017-05-14T13:19:20.693Z,84640
2017-05-14T13:20:30.312Z,88128
2017-05-14T13:21:39.871Z,92800
2017-05-14T13:22:49.441Z,91520
2017-05-14T13:23:58.499Z,59328
2017-05-14T13:25:07.409Z,84800
2017-05-14T13:26:16.321Z,103904
2017-05-14T13:27:25.568Z,62496
2017-05-14T13:28:34.482Z,47040
2017-05-14T13:29:43.447Z,34016
2017-05-14T13:30:52.359Z,36288
2017-05-14T13:32:01.271Z,34208
2017-05-14T13:33:10.193Z,76000
2017-05-14T13:34:19.433Z,69568
2017-05-14T13:35:28.694Z,97280
2017-05-14T13:36:37.610Z,31008
2017-05-14T13:37:46.846Z,45024
2017-05-14T13:38:55.756Z,98752
2017-05-14T13:40:04.674Z,92288
2017-05-14T13:41:13.733Z,88416
2017-05-14T13:42:22.976Z,90784
2017-05-14T13:43:31.886Z,89472
2017-05-14T13:44:41.126Z,86016
2017-05-14T13:45:50.046Z,92736
2017-05-14T13:46:59.257Z,92192
2017-05-14T13:48:08.495Z,87968
2017-05-14T13:49:17.410Z,72896
2017-05-14T13:50:26.332Z,81024
2017-05-14T13:51:35.249Z,44832
2017-05-14T13:52:44.271Z,27488
2017-05-14T13:53:53.189Z,59648
2017-05-14T13:55:02.438Z,73824
2017-05-14T13:56:11.673Z,78528
2017-05-14T13:57:20.649Z,80480
2017-05-14T13:58:30.475Z,85216
2017-05-14T13:59:39.715Z,85696
2017-05-14T14:00:48.958Z,80480
2017-05-14T14:01:57.879Z,75840
2017-05-14T14:03:06.797Z,54432
2017-05-14T14:04:15.864Z,22080
2017-05-14T14:05:24.780Z,20608
2017-05-14T14:06:34.018Z,22080
2017-05-14T14:07:42.935Z,65344
2017-05-14T14:08:51.850Z,50976
2017-05-14T14:10:00.813Z,80416
2017-05-14T14:11:10.052Z,88864
2017-05-14T14:12:18.968Z,87264
2017-05-14T14:13:27.882Z,74080
2017-05-14T14:14:36.796Z,82368
2017-05-14T14:15:45.758Z,79264
2017-05-14T14:16:54.672Z,81760
2017-05-14T14:18:03.912Z,83840
2017-05-14T14:19:13.151Z,89984
2017-05-14T14:20:22.388Z,92224
2017-05-14T14:21:31.410Z,91840
2017-05-14T14:22:40.694Z,88352
2017-05-14T14:23:49.621Z,82208
2017-05-14T14:24:58.864Z,52832
2017-05-14T14:26:08.146Z,25056
2017-05-14T14:27:17.062Z,51968
2017-05-14T14:28:25.977Z,81952
2017-05-14T14:29:34.893Z,83264
2017-05-14T14:30:44.131Z,78720
2017-05-14T14:31:53.056Z,83360
2017-05-14T14:33:02.126Z,82720
2017-05-14T14:34:11.043Z,84256
2017-05-14T14:35:19.961Z,81792
2017-05-14T14:36:29.853Z,79840
2017-05-14T14:37:38.767Z,45024
2017-05-14T14:38:47.883Z,75552
2017-05-14T14:39:57.451Z,75744
2017-05-14T14:41:06.378Z,76000
2017-05-14T14:42:15.298Z,81280
2017-05-14T14:43:24.268Z,60704
2017-05-14T14:44:33.834Z,75392
2017-05-14T14:45:42.796Z,82784
2017-05-14T14:46:51.712Z,83232
2017-05-14T14:48:00.630Z,85888
2017-05-14T14:49:09.548Z,84384
2017-05-14T14:50:19.167Z,87264
2017-05-14T14:51:28.132Z,69024
2017-05-14T14:52:37.380Z,85504
2017-05-14T14:53:46.299Z,82240
2017-05-14T14:54:55.541Z,83264
2017-05-14T14:56:04.514Z,38880
2017-05-14T14:57:13.439Z,26272
2017-05-14T14:58:22.360Z,20544
2017-05-14T14:59:31.274Z,19296
2017-05-14T15:00:40.188Z,18048
2017-05-14T15:01:49.528Z,19040
2017-05-14T15:02:58.441Z,18112
2017-05-14T15:04:07.675Z,21856
2017-05-14T15:05:16.587Z,20800
2017-05-14T15:06:26.153Z,20160
2017-05-14T15:07:35.215Z,18368
2017-05-14T15:08:44.126Z,15824
2017-05-14T15:09:53.039Z,16140
2017-05-14T15:11:01.956Z,18432
2017-05-14T15:12:11.190Z,18592
2017-05-14T15:13:20.244Z,20832
2017-05-14T15:14:29.154Z,20672
2017-05-14T15:15:38.061Z,18176
2017-05-14T15:16:46.974Z,18144
2017-05-14T15:17:55.882Z,18048
2017-05-14T15:19:04.896Z,17216
2017-05-14T15:20:13.801Z,21408
2017-05-14T15:21:23.033Z,24256
2017-05-14T15:22:32.591Z,25344
2017-05-14T15:23:41.498Z,32992
2017-05-14T15:24:50.980Z,29216
2017-05-14T15:25:59.891Z,28064
2017-05-14T15:27:08.795Z,75648
2017-05-14T15:28:17.701Z,48864
2017-05-14T15:29:26.986Z,74144
2017-05-14T15:30:36.043Z,64192
2017-05-14T15:31:44.958Z,84160